createdAt,value
2022-09-23T00:03:29.113Z,100335.12
2022-09-23T00:08:36.825Z,100332.41
2022-09-23T00:13:45.806Z,100330.05
2022-09-23T00:18:53.266Z,100326.46
2022-09-23T00:24:00.288Z,100324.29
2022-09-23T00:29:07.505Z,100324.35
2022-09-23T00:34:14.743Z,100320.77
2022-09-23T00:39:21.863Z,100315.39
2022-09-23T00:44:58.887Z,100308.31
2022-09-23T00:50:12.011Z,100310.30
2022-09-23T00:55:21.771Z,100308.98
2022-09-23T01:00:29.414Z,100307.45
2022-09-23T01:05:37.189Z,100306.63
2022-09-23T01:10:55.014Z,100305.27
2022-09-23T01:16:08.325Z,100304.10
2022-09-23T01:21:37.996Z,100302.23
2022-09-23T01:27:17.073Z,100304.35
2022-09-23T01:32:37.451Z,100309.11
2022-09-23T01:37:48.854Z,100308.30
2022-09-23T01:43:00.268Z,100302.42
2022-09-23T01:48:14.371Z,100299.17
2022-09-23T01:53:26.128Z,100297.48
2022-09-23T01:58:40.056Z,100297.54
2022-09-23T02:03:52.215Z,100292.36
2022-09-23T02:09:03.831Z,100293.95
2022-09-23T02:14:16.291Z,100292.40
2022-09-23T02:19:30.211Z,100294.00
2022-09-23T02:24:40.289Z,100292.63
2022-09-23T02:29:56.225Z,100289.86
2022-09-23T02:35:11.134Z,100287.80
2022-09-23T02:40:26.794Z,100288.69
2022-09-23T02:45:35.920Z,100285.95
2022-09-23T02:50:43.528Z,100290.66
2022-09-23T02:55:51.458Z,100291.90
2022-09-23T03:01:09.849Z,100292.96
2022-09-23T03:06:55.026Z,100294.91
2022-09-23T03:12:14.479Z,100292.14
2022-09-23T03:17:30.379Z,100293.77
2022-09-23T03:22:42.131Z,100290.67
2022-09-23T03:27:49.356Z,100287.06
2022-09-23T03:33:00.570Z,100282.41
2022-09-23T03:38:17.794Z,100284.04
2022-09-23T03:43:25.335Z,100275.39
2022-09-23T03:48:32.711Z,100274.90
2022-09-23T03:53:40.098Z,100273.03
2022-09-23T03:58:47.794Z,100267.16
2022-09-23T04:03:55.388Z,100261.45
2022-09-23T04:09:03.301Z,100258.86
2022-09-23T04:14:12.567Z,100254.89
2022-09-23T04:19:20.386Z,100257.86
2022-09-23T04:24:28.345Z,100256.67
2022-09-23T04:29:35.865Z,100255.31
2022-09-23T04:34:44.026Z,100250.98
2022-09-23T04:39:51.466Z,100252.73
2022-09-23T04:44:59.250Z,100247.52
2022-09-23T04:50:07.931Z,100247.18
2022-09-23T04:55:15.712Z,100249.97
2022-09-23T05:00:23.668Z,100248.58
2022-09-23T05:05:32.352Z,100246.66
2022-09-23T05:10:40.263Z,100246.98
2022-09-23T05:15:48.035Z,100246.66
2022-09-23T05:20:58.573Z,100250.63
2022-09-23T05:26:07.710Z,100247.33
2022-09-23T05:31:20.088Z,100245.90
2022-09-23T05:36:32.038Z,100250.21
2022-09-23T05:41:42.114Z,100250.86
2022-09-23T05:46:49.639Z,100245.22
2022-09-23T05:51:57.093Z,100247.69
2022-09-23T05:57:06.490Z,100242.10
2022-09-23T06:02:14.921Z,100240.86
2022-09-23T06:07:22.498Z,100239.55
2022-09-23T06:12:30.211Z,100241.38
2022-09-23T06:17:37.713Z,100242.13
2022-09-23T06:22:45.783Z,100247.58
2022-09-23T06:27:58.785Z,100241.02
2022-09-23T06:33:06.616Z,100240.35
2022-09-23T06:38:14.892Z,100242.09
2022-09-23T06:43:23.540Z,100242.57
2022-09-23T06:48:31.795Z,100237.30
2022-09-23T06:53:39.726Z,100229.39
2022-09-23T06:58:47.257Z,100226.16
2022-09-23T07:03:54.612Z,100232.15
2022-09-23T07:09:02.409Z,100236.56
2022-09-23T07:14:09.975Z,100237.45
2022-09-23T07:19:17.122Z,100239.79
2022-09-23T07:24:28.266Z,100243.84
2022-09-23T07:29:46.421Z,100242.88
2022-09-23T07:34:56.722Z,100242.69
2022-09-23T07:40:04.283Z,100249.19
2022-09-23T07:45:13.421Z,100253.28
2022-09-23T07:50:23.074Z,100256.23
2022-09-23T07:55:30.437Z,100256.31
2022-09-23T08:00:38.208Z,100260.00
2022-09-23T08:05:46.323Z,100254.77
2022-09-23T08:10:53.859Z,100254.19
2022-09-23T08:16:01.374Z,100253.14
2022-09-23T08:21:09.204Z,100245.40
2022-09-23T08:26:21.484Z,100232.52
2022-09-23T08:31:30.034Z,100227.20
2022-09-23T08:36:37.725Z,100223.52
2022-09-23T08:41:58.544Z,100226.93
2022-09-23T09:04:19.467Z,100223.08
2022-09-23T09:09:32.575Z,100213.95
2022-09-23T09:14:51.747Z,100209.77
2022-09-23T09:20:05.801Z,100208.60
2022-09-23T09:25:25.388Z,100204.44
2022-09-23T09:30:34.460Z,100202.35
2022-09-23T09:35:53.935Z,100202.88
2022-09-23T09:41:13.041Z,100201.14
2022-09-23T09:46:47.171Z,100197.16
2022-09-23T09:52:16.291Z,100201.14
2022-09-23T09:57:35.356Z,100196.84
2022-09-23T10:02:43.407Z,100194.40
2022-09-23T10:07:51.405Z,100191.86
2022-09-23T10:12:59.626Z,100182.77
2022-09-23T10:18:20.060Z,100184.30
2022-09-23T10:23:33.731Z,100176.52
2022-09-23T10:28:52.289Z,100169.90
2022-09-23T10:34:01.378Z,100169.13
2022-09-23T10:39:28.427Z,100160.91
2022-09-23T10:45:01.120Z,100157.48
2022-09-23T10:50:25.923Z,100154.07
2022-09-23T10:55:50.614Z,100149.02
2022-09-23T11:01:09.871Z,100151.61
2022-09-23T11:06:25.533Z,100147.38
2022-09-23T11:11:47.570Z,100142.34
2022-09-23T11:17:15.033Z,100145.39
2022-09-23T11:22:36.525Z,100142.02
2022-09-23T11:27:57.514Z,100133.31
2022-09-23T11:33:19.433Z,100129.13
2022-09-23T11:38:31.726Z,100126.73
2022-09-23T11:43:40.677Z,100126.44
2022-09-23T11:48:57.491Z,100122.51
2022-09-23T11:54:10.941Z,100118.90
2022-09-23T11:59:34.197Z,100125.41
2022-09-23T12:04:57.794Z,100123.09
2022-09-23T12:10:07.971Z,100116.69
2022-09-23T12:15:25.340Z,100115.43
2022-09-23T12:20:57.118Z,100115.87
2022-09-23T12:26:08.199Z,100112.40
2022-09-23T12:31:17.974Z,100118.87
2022-09-23T12:36:37.509Z,100110.52
2022-09-23T12:41:49.054Z,100105.91
2022-09-23T12:47:33.554Z,100105.10
2022-09-23T12:52:40.763Z,100107.61
2022-09-23T12:57:48.991Z,100104.21
2022-09-23T13:03:19.430Z,100106.20
2022-09-23T13:08:28.684Z,100106.30
2022-09-23T13:13:40.391Z,100111.27
2022-09-23T13:18:55.907Z,100107.20
2022-09-23T13:24:36.631Z,100108.71
2022-09-23T13:29:47.249Z,100105.90
2022-09-23T13:35:01.882Z,100103.08
2022-09-23T13:40:25.801Z,100097.74
2022-09-23T13:45:34.264Z,100101.60
2022-09-23T13:50:45.368Z,100100.81
2022-09-23T13:56:03.427Z,100098.81
2022-09-23T14:01:23.433Z,100092.86
2022-09-23T14:06:31.603Z,100094.23
2022-09-23T14:11:39.238Z,100092.85
2022-09-23T14:16:46.768Z,100088.64
2022-09-23T14:21:55.808Z,100063.59
2022-09-23T14:27:09.581Z,100079.42
2022-09-23T14:32:21.420Z,100082.15
2022-09-23T14:37:51.543Z,100078.14
2022-09-23T14:43:05.100Z,100079.73
2022-09-23T14:48:16.493Z,100075.80
2022-09-23T14:53:41.432Z,100073.46
2022-09-23T14:58:53.040Z,100068.88
2022-09-23T15:04:02.156Z,100066.06
2022-09-23T15:09:13.738Z,100062.33
2022-09-23T15:14:37.274Z,100058.00
2022-09-23T15:19:46.850Z,100057.38
2022-09-23T15:24:56.266Z,100056.45
2022-09-23T15:30:16.492Z,100053.89
2022-09-23T15:35:26.950Z,100053.10
2022-09-23T15:40:36.331Z,100045.60
2022-09-23T15:45:48.356Z,100047.48
2022-09-23T15:50:56.397Z,100048.24
2022-09-23T15:56:03.786Z,100049.70
2022-09-23T16:01:14.092Z,100049.23
2022-09-23T16:06:21.529Z,100050.28
2022-09-23T16:11:32.047Z,100049.67
2022-09-23T16:16:39.339Z,100052.23
2022-09-23T16:21:46.997Z,100048.70
2022-09-23T16:27:00.314Z,100045.44
2022-09-23T16:32:07.944Z,100045.35
2022-09-23T16:37:18.421Z,100035.39
2022-09-23T16:42:25.347Z,100038.60
2022-09-23T16:47:32.631Z,100046.19
2022-09-23T16:52:39.968Z,100046.95
2022-09-23T16:57:47.193Z,100047.98
2022-09-23T17:03:11.719Z,100048.80
2022-09-23T17:08:19.812Z,100038.50
2022-09-23T17:13:27.309Z,100037.17
2022-09-23T17:18:35.257Z,100033.42
2022-09-23T17:23:42.631Z,100031.39
2022-09-23T17:28:49.998Z,100023.73
2022-09-23T17:33:57.292Z,100020.30
2022-09-23T17:39:05.393Z,100023.46
2022-09-23T17:44:14.568Z,100023.73
2022-09-23T17:49:24.535Z,100026.48
2022-09-23T17:54:32.541Z,100022.11
2022-09-23T17:59:39.914Z,100020.73
2022-09-23T18:04:47.373Z,100020.35
2022-09-23T18:09:55.322Z,100020.73
2022-09-23T18:15:02.541Z,100023.11
2022-09-23T18:20:12.316Z,100022.70
2022-09-23T18:25:38.232Z,100015.73
2022-09-23T18:30:56.244Z,100018.16
2022-09-23T18:36:05.079Z,100018.70
2022-09-23T18:41:12.358Z,100021.41
2022-09-23T18:46:21.360Z,100024.77
2022-09-23T18:51:30.295Z,100026.40
2022-09-23T18:56:42.464Z,100032.11
2022-09-23T19:01:49.010Z,100033.70
2022-09-23T19:06:58.318Z,100029.78
2022-09-23T19:12:06.250Z,100028.89
2022-09-23T19:17:13.893Z,100029.23
2022-09-23T19:22:21.677Z,100028.16
2022-09-23T19:27:29.345Z,100015.96
2022-09-23T19:32:36.697Z,100035.65
2022-09-23T19:37:46.456Z,100033.54
2022-09-23T19:42:55.442Z,100033.02
2022-09-23T19:48:02.564Z,100030.88
2022-09-23T19:53:10.281Z,100038.61
2022-09-23T19:58:17.546Z,100038.41
2022-09-23T20:03:26.456Z,100034.05
2022-09-23T20:08:36.091Z,100035.50
2022-09-23T20:13:46.202Z,100033.05
2022-09-23T20:18:55.414Z,100031.34
2022-09-23T20:24:04.953Z,100022.51
2022-09-23T20:29:12.265Z,100023.62
2022-09-23T20:34:19.943Z,100020.93
2022-09-23T20:39:27.139Z,100019.58
2022-09-23T20:44:34.561Z,100014.83
2022-09-23T20:49:43.256Z,100012.34
2022-09-23T20:54:51.991Z,100014.42
2022-09-23T20:59:59.040Z,100015.98
2022-09-23T21:05:06.748Z,100012.98
2022-09-23T21:10:14.768Z,100012.38
2022-09-23T21:15:23.484Z,100008.30
2022-09-23T21:20:30.486Z,100012.59
2022-09-23T21:25:37.765Z,100003.59
2022-09-23T21:30:48.559Z,99998.96
2022-09-23T21:36:04.286Z,99998.01
2022-09-23T21:41:10.508Z,99996.76
2022-09-23T21:46:20.488Z,99998.79
2022-09-23T21:51:29.441Z,100002.27
2022-09-23T21:56:38.261Z,100002.56
2022-09-23T22:01:50.469Z,100003.72
2022-09-23T22:07:00.814Z,99998.38
2022-09-23T22:12:11.730Z,99996.38
2022-09-23T22:17:19.813Z,99996.94
2022-09-23T22:22:27.080Z,99995.60
2022-09-23T22:27:54.204Z,99990.95
2022-09-23T22:33:05.193Z,99990.62
2022-09-23T22:38:14.245Z,99996.27
2022-09-23T22:43:21.536Z,99989.85
2022-09-23T22:48:28.580Z,99985.68
2022-09-23T22:53:35.769Z,99983.14
2022-09-23T22:58:42.963Z,99975.60
2022-09-23T23:03:49.921Z,99971.43
2022-09-23T23:08:58.942Z,99972.11
2022-09-23T23:14:06.373Z,99975.10
2022-09-23T23:19:15.087Z,99977.76
2022-09-23T23:24:23.684Z,99979.19
2022-09-23T23:29:31.032Z,99988.65
2022-09-23T23:34:38.234Z,99986.76
2022-09-23T23:39:48.101Z,99985.71
2022-09-23T23:44:55.650Z,99984.56
2022-09-23T23:50:04.779Z,99984.66
2022-09-23T23:55:12.608Z,99976.98
